Time;durP1;ratioP1;P1;durP2;ratioP2;P2;SDS_P1;SDS_P2;PMS_P1;PMS_P2;Temp;Humidity;BMP_temperature;BMP_pressure;BME280_temperature;BME280_humidity;BME280_pressure;Samples;Min_cycle;Max_cycle;Signal;HPM_P1;HPM_P2
2022/06/08 00:02:23;;;;;;;95.07;38.50;;;;;;;;;;5015657;28;20470;-71
2022/06/08 00:04:49;;;;;;;81.00;35.33;;;;;;;;;;5019722;28;20074;-71
2022/06/08 00:07:14;;;;;;;82.23;36.73;;;;;;;;;;5024815;28;20144;-70
2022/06/08 00:09:40;;;;;;;77.27;34.53;;;;;;;;;;5014336;28;20029;-71
2022/06/08 00:12:06;;;;;;;74.00;32.70;;;;;;;;;;5014886;28;20018;-70
2022/06/08 00:14:32;;;;;;;89.70;36.80;;;;;;;;;;5023465;28;20100;-71
2022/06/08 00:16:57;;;;;;;94.03;38.00;;;;;;;;;;5013698;28;20184;-71
2022/06/08 00:19:23;;;;;;;99.83;40.50;;;;;;;;;;5014486;28;20118;-71
2022/06/08 00:21:48;;;;;;;96.47;39.63;;;;;;;;;;5014003;28;20026;-71
2022/06/08 00:24:13;;;;;;;86.90;37.00;;;;;;;;;;5018625;28;20017;-71
2022/06/08 00:26:38;;;;;;;74.37;35.13;;;;;;;;;;5029260;28;20389;-71
2022/06/08 00:29:04;;;;;;;67.70;30.93;;;;;;;;;;5012724;28;20036;-71
2022/06/08 00:31:30;;;;;;;78.40;33.27;;;;;;;;;;5024250;28;20036;-71
2022/06/08 00:33:55;;;;;;;75.93;33.37;;;;;;;;;;5030185;28;20529;-70
2022/06/08 00:36:20;;;;;;;64.27;30.80;;;;;;;;;;5026334;28;20021;-71
2022/06/08 00:38:45;;;;;;;58.83;28.53;;;;;;;;;;5015218;28;20390;-71
2022/06/08 00:41:26;;;;;;;57.60;27.93;;;;;;;;;;5011622;28;20076;-71
2022/06/08 00:43:52;;;;;;;56.53;27.20;;;;;;;;;;5013114;28;20026;-71
2022/06/08 00:46:17;;;;;;;59.97;28.90;;;;;;;;;;5018052;28;20025;-71
2022/06/08 00:48:45;;;;;;;62.37;28.97;;;;;;;;;;5016136;28;20017;-71
2022/06/08 00:51:11;;;;;;;69.20;31.57;;;;;;;;;;5005815;28;20025;-71
2022/06/08 00:53:38;;;;;;;85.27;36.37;;;;;;;;;;5007635;28;20033;-71
2022/06/08 00:56:05;;;;;;;84.00;36.73;;;;;;;;;;5003777;28;20029;-71
2022/06/08 00:58:31;;;;;;;82.57;36.17;;;;;;;;;;5019410;28;20021;-71
2022/06/08 01:00:58;;;;;;;81.00;37.30;;;;;;;;;;5025911;28;20021;-68
2022/06/08 01:03:24;;;;;;;63.23;31.80;;;;;;;;;;5017449;28;20037;-68
2022/06/08 01:05:55;;;;;;;59.83;31.13;;;;;;;;;;5022482;28;20482;-68
2022/06/08 01:08:23;;;;;;;56.47;28.30;;;;;;;;;;5027577;28;20526;-68
2022/06/08 01:10:50;;;;;;;50.47;26.93;;;;;;;;;;4976408;28;1186215;-68
2022/06/08 01:13:15;;;;;;;41.77;23.70;;;;;;;;;;5022025;28;20306;-68
2022/06/08 01:15:40;;;;;;;42.23;22.67;;;;;;;;;;5018378;28;20086;-68
2022/06/08 01:18:06;;;;;;;39.97;22.93;;;;;;;;;;5019111;28;20087;-68
2022/06/08 01:20:31;;;;;;;39.87;22.90;;;;;;;;;;5015433;28;20064;-68
2022/06/08 01:22:57;;;;;;;36.93;21.90;;;;;;;;;;5021775;28;20029;-68
2022/06/08 01:25:24;;;;;;;36.33;21.67;;;;;;;;;;5019767;28;20025;-68
2022/06/08 01:27:52;;;;;;;37.00;22.00;;;;;;;;;;5023480;28;20025;-68
2022/06/08 01:30:17;;;;;;;42.57;23.73;;;;;;;;;;5013245;28;20052;-68
2022/06/08 01:32:58;;;;;;;35.77;21.20;;;;;;;;;;5014793;28;20034;-68
2022/06/08 01:35:23;;;;;;;31.03;19.43;;;;;;;;;;5016232;28;20022;-68
2022/06/08 01:37:51;;;;;;;31.07;19.07;;;;;;;;;;5025900;28;20486;-68
2022/06/08 01:40:31;;;;;;;31.17;18.30;;;;;;;;;;5025136;28;20087;-68
2022/06/08 01:43:00;;;;;;;26.70;17.83;;;;;;;;;;5026972;28;20052;-68
2022/06/08 01:45:28;;;;;;;32.30;18.70;;;;;;;;;;5023698;28;20033;-69
2022/06/08 01:48:05;;;;;;;26.77;16.80;;;;;;;;;;5018262;28;20021;-68
2022/06/08 01:50:50;;;;;;;28.63;18.13;;;;;;;;;;5017595;28;20076;-68
2022/06/08 01:53:47;;;;;;;30.47;18.40;;;;;;;;;;5022567;28;20018;-68
2022/06/08 01:56:25;;;;;;;32.13;19.23;;;;;;;;;;5023306;28;20397;-68
2022/06/08 01:58:57;;;;;;;30.23;18.33;;;;;;;;;;5011974;28;20036;-68
2022/06/08 02:01:22;;;;;;;30.35;19.98;;;;;;;;;;5019831;28;20441;-69
2022/06/08 02:03:54;;;;;;;32.77;19.37;;;;;;;;;;5026420;28;20045;-68
2022/06/08 02:06:31;;;;;;;30.33;18.80;;;;;;;;;;5024277;28;20025;-68
2022/06/08 02:09:01;;;;;;;31.00;20.33;;;;;;;;;;5026484;28;20363;-68
2022/06/08 02:11:35;;;;;;;36.73;18.63;;;;;;;;;;5026902;28;20025;-68
2022/06/08 02:14:07;;;;;;;29.23;17.50;;;;;;;;;;5029683;28;20399;-68
2022/06/08 02:16:38;;;;;;;30.77;17.40;;;;;;;;;;5027411;28;20029;-68
2022/06/08 02:19:06;;;;;;;25.48;16.42;;;;;;;;;;5025601;28;20123;-68
2022/06/08 02:21:52;;;;;;;27.07;17.37;;;;;;;;;;5023778;28;20503;-68
2022/06/08 02:24:21;;;;;;;30.53;17.93;;;;;;;;;;5019777;28;20029;-68
2022/06/08 02:26:57;;;;;;;30.23;18.77;;;;;;;;;;5019893;28;20052;-68
2022/06/08 02:29:26;;;;;;;31.33;19.20;;;;;;;;;;5018324;28;20030;-68
2022/06/08 02:31:56;;;;;;;30.47;20.03;;;;;;;;;;5028786;28;20045;-69
2022/06/08 02:34:33;;;;;;;30.63;19.90;;;;;;;;;;5030128;28;20057;-68
2022/06/08 02:36:58;;;;;;;32.63;20.03;;;;;;;;;;5025476;28;20017;-68
2022/06/08 02:39:44;;;;;;;35.80;21.00;;;;;;;;;;5023872;28;20519;-68
2022/06/08 02:42:15;;;;;;;37.40;21.27;;;;;;;;;;5015323;28;20041;-68
2022/06/08 02:44:43;;;;;;;33.97;20.52;;;;;;;;;;5025884;28;20037;-68
2022/06/08 02:47:15;;;;;;;34.17;21.00;;;;;;;;;;5025220;28;20104;-68
2022/06/08 02:49:40;;;;;;;33.80;20.27;;;;;;;;;;5019281;28;20404;-68
2022/06/08 02:52:19;;;;;;;31.93;18.97;;;;;;;;;;5026250;28;20028;-68
2022/06/08 02:54:45;;;;;;;31.27;19.83;;;;;;;;;;5024402;28;20022;-68
2022/06/08 02:57:13;;;;;;;34.37;19.40;;;;;;;;;;5029239;28;20032;-71
2022/06/08 02:59:57;;;;;;;36.50;20.90;;;;;;;;;;5029424;28;20025;-71
2022/06/08 03:02:25;;;;;;;37.63;22.73;;;;;;;;;;5024062;28;20377;-71
2022/06/08 03:05:17;;;;;;;46.50;24.90;;;;;;;;;;5024853;28;20071;-71
2022/06/08 03:08:00;;;;;;;43.88;25.13;;;;;;;;;;5024273;28;20029;-71
2022/06/08 03:10:27;;;;;;;52.30;27.83;;;;;;;;;;5026941;28;20044;-71
2022/06/08 03:13:11;;;;;;;48.83;25.97;;;;;;;;;;5028568;28;20080;-71
2022/06/08 03:15:37;;;;;;;58.53;29.90;;;;;;;;;;5026302;28;20025;-71
2022/06/08 03:18:02;;;;;;;52.57;28.43;;;;;;;;;;5029737;28;20025;-71
2022/06/08 03:20:28;;;;;;;58.07;30.53;;;;;;;;;;5017757;28;20052;-71
2022/06/08 03:22:54;;;;;;;64.17;31.57;;;;;;;;;;5013762;28;20037;-71
2022/06/08 03:25:19;;;;;;;53.13;29.93;;;;;;;;;;5026491;28;20024;-71
2022/06/08 03:27:45;;;;;;;61.07;31.33;;;;;;;;;;5029508;28;20056;-71
2022/06/08 03:30:11;;;;;;;61.70;31.30;;;;;;;;;;5028209;28;20032;-71
2022/06/08 03:32:37;;;;;;;60.40;31.27;;;;;;;;;;5026699;28;20049;-71
2022/06/08 03:35:02;;;;;;;59.00;31.27;;;;;;;;;;5025650;28;20060;-71
2022/06/08 03:37:28;;;;;;;68.07;34.20;;;;;;;;;;5010494;28;20033;-71
2022/06/08 03:39:53;;;;;;;56.83;33.10;;;;;;;;;;5017188;28;20017;-71
2022/06/08 03:42:18;;;;;;;68.50;33.10;;;;;;;;;;5024477;28;20021;-71
2022/06/08 03:44:43;;;;;;;66.57;33.50;;;;;;;;;;5028086;28;20049;-71
2022/06/08 03:47:15;;;;;;;64.67;32.33;;;;;;;;;;5018343;28;20470;-71
2022/06/08 03:49:40;;;;;;;60.30;33.03;;;;;;;;;;5020058;28;20034;-71
2022/06/08 03:52:09;;;;;;;65.00;33.63;;;;;;;;;;5024405;28;20112;-71
2022/06/08 03:54:37;;;;;;;65.27;32.33;;;;;;;;;;5027369;28;20026;-71
2022/06/08 03:57:03;;;;;;;71.87;34.07;;;;;;;;;;5027894;28;20029;-71
2022/06/08 03:59:30;;;;;;;82.67;34.70;;;;;;;;;;5024056;28;20371;-71
2022/06/08 04:01:55;;;;;;;71.37;34.20;;;;;;;;;;5017556;28;20021;-71
2022/06/08 04:04:20;;;;;;;72.87;34.77;;;;;;;;;;5024866;28;20393;-71
2022/06/08 04:06:45;;;;;;;56.93;31.30;;;;;;;;;;5022678;28;20033;-71
2022/06/08 04:09:11;;;;;;;56.30;31.00;;;;;;;;;;5031440;28;20552;-71
2022/06/08 04:11:36;;;;;;;51.80;28.73;;;;;;;;;;5032751;28;20078;-71
2022/06/08 04:14:02;;;;;;;52.57;29.27;;;;;;;;;;5027386;28;20030;-71
2022/06/08 04:16:28;;;;;;;51.23;28.73;;;;;;;;;;5024429;28;20033;-71
2022/06/08 04:18:53;;;;;;;56.17;29.73;;;;;;;;;;5023143;28;20105;-71
2022/06/08 04:21:18;;;;;;;61.63;31.53;;;;;;;;;;5025786;28;20042;-71
2022/06/08 04:23:45;;;;;;;45.43;27.53;;;;;;;;;;5013813;28;20378;-71
2022/06/08 04:26:10;;;;;;;39.90;24.07;;;;;;;;;;5027251;28;20025;-70
2022/06/08 04:28:36;;;;;;;37.10;22.07;;;;;;;;;;5027255;28;20382;-71
2022/06/08 04:31:01;;;;;;;36.67;20.10;;;;;;;;;;5025035;28;20065;-71
2022/06/08 04:33:27;;;;;;;29.17;20.13;;;;;;;;;;5027585;28;20021;-71
2022/06/08 04:35:52;;;;;;;26.30;19.00;;;;;;;;;;5027738;28;20095;-71
2022/06/08 04:38:17;;;;;;;26.20;18.43;;;;;;;;;;5030571;28;20018;-70
2022/06/08 04:40:43;;;;;;;22.83;16.67;;;;;;;;;;5015565;28;20026;-70
2022/06/08 04:43:09;;;;;;;25.23;16.77;;;;;;;;;;5030960;28;20365;-70
2022/06/08 04:45:35;;;;;;;24.53;15.97;;;;;;;;;;5021452;28;20466;-70
2022/06/08 04:48:01;;;;;;;25.40;15.65;;;;;;;;;;5028775;28;20378;-70
2022/06/08 04:50:27;;;;;;;19.98;14.55;;;;;;;;;;5026820;28;20028;-70
2022/06/08 04:52:53;;;;;;;19.67;13.88;;;;;;;;;;5020657;28;20021;-70
2022/06/08 04:55:18;;;;;;;22.23;13.80;;;;;;;;;;5021309;28;20067;-70
2022/06/08 04:57:43;;;;;;;22.33;13.77;;;;;;;;;;5031972;28;20041;-71
2022/06/08 05:00:11;;;;;;;21.58;15.27;;;;;;;;;;5026369;28;20036;-71
2022/06/08 05:02:43;;;;;;;27.65;15.88;;;;;;;;;;5028358;28;20484;-71
2022/06/08 05:05:10;;;;;;;25.58;16.27;;;;;;;;;;5030572;28;20334;-71
2022/06/08 05:07:35;;;;;;;24.70;18.08;;;;;;;;;;5025184;28;20029;-74
2022/06/08 05:10:00;;;;;;;26.67;18.77;;;;;;;;;;5019483;28;20037;-71
2022/06/08 05:12:26;;;;;;;28.45;18.70;;;;;;;;;;5015644;28;20029;-72
2022/06/08 05:14:51;;;;;;;31.08;18.90;;;;;;;;;;5023787;28;20025;-71
2022/06/08 05:17:16;;;;;;;29.40;19.55;;;;;;;;;;5018978;28;20088;-71
2022/06/08 05:19:42;;;;;;;30.48;20.52;;;;;;;;;;5030205;28;20029;-71
2022/06/08 05:22:07;;;;;;;30.27;19.98;;;;;;;;;;5027814;28;20021;-72
2022/06/08 05:24:32;;;;;;;32.40;19.05;;;;;;;;;;5016381;28;20440;-71
2022/06/08 05:26:57;;;;;;;30.38;19.42;;;;;;;;;;5025815;28;20025;-71
2022/06/08 05:29:23;;;;;;;30.30;20.48;;;;;;;;;;5014727;28;20458;-71
2022/06/08 05:31:48;;;;;;;28.10;18.90;;;;;;;;;;5027427;28;20476;-71
2022/06/08 05:34:13;;;;;;;25.70;17.67;;;;;;;;;;5015207;28;20032;-70
2022/06/08 05:36:38;;;;;;;26.10;16.58;;;;;;;;;;5020978;28;20026;-70
2022/06/08 05:39:05;;;;;;;22.27;14.90;;;;;;;;;;5015609;28;21239;-70
2022/06/08 05:41:31;;;;;;;22.85;14.68;;;;;;;;;;5021299;28;20040;-70
2022/06/08 05:43:56;;;;;;;21.75;15.10;;;;;;;;;;5013711;28;20390;-72
2022/06/08 05:46:21;;;;;;;20.92;14.55;;;;;;;;;;5027919;28;20065;-70
2022/06/08 05:48:47;;;;;;;21.88;15.18;;;;;;;;;;5018524;28;20029;-70
2022/06/08 05:51:12;;;;;;;21.55;15.15;;;;;;;;;;5024858;28;20060;-70
2022/06/08 05:53:37;;;;;;;20.30;14.95;;;;;;;;;;5021892;28;20086;-70
2022/06/08 05:56:03;;;;;;;21.88;15.07;;;;;;;;;;5016159;28;20061;-70
2022/06/08 05:58:28;;;;;;;20.45;13.93;;;;;;;;;;5029581;28;20025;-70
2022/06/08 06:00:53;;;;;;;19.33;14.07;;;;;;;;;;5022396;28;20040;-70
2022/06/08 06:03:19;;;;;;;19.05;14.02;;;;;;;;;;5023596;28;20492;-70
2022/06/08 06:05:44;;;;;;;22.33;15.30;;;;;;;;;;5014520;28;20470;-70
2022/06/08 06:08:10;;;;;;;20.05;14.23;;;;;;;;;;5018287;28;20033;-70
2022/06/08 06:10:37;;;;;;;19.90;14.57;;;;;;;;;;5019788;28;20041;-70
2022/06/08 06:13:03;;;;;;;19.30;14.07;;;;;;;;;;5027775;28;20037;-71
2022/06/08 06:15:29;;;;;;;22.33;14.10;;;;;;;;;;5025716;28;20033;-70
2022/06/08 06:17:54;;;;;;;20.25;15.43;;;;;;;;;;5028300;28;20040;-70
2022/06/08 06:20:19;;;;;;;22.23;15.30;;;;;;;;;;5023987;28;20037;-70
2022/06/08 06:22:45;;;;;;;22.08;15.73;;;;;;;;;;5014806;28;20422;-69
2022/06/08 06:25:11;;;;;;;25.50;17.42;;;;;;;;;;5015525;28;20014;-70
2022/06/08 06:27:36;;;;;;;24.67;17.75;;;;;;;;;;5018572;28;20049;-70
2022/06/08 06:30:03;;;;;;;23.15;18.77;;;;;;;;;;5023656;28;20105;-70
2022/06/08 06:32:29;;;;;;;26.20;18.75;;;;;;;;;;5023285;28;20478;-70
2022/06/08 06:34:56;;;;;;;30.25;19.52;;;;;;;;;;5017122;28;20067;-70
2022/06/08 06:37:21;;;;;;;26.17;19.05;;;;;;;;;;5020613;28;20029;-70
2022/06/08 06:39:46;;;;;;;23.48;18.48;;;;;;;;;;5025999;28;20064;-70
2022/06/08 06:42:14;;;;;;;27.10;19.15;;;;;;;;;;5021647;28;20512;-70
2022/06/08 06:44:39;;;;;;;27.55;20.77;;;;;;;;;;5031730;28;20373;-70
2022/06/08 06:47:05;;;;;;;26.38;19.70;;;;;;;;;;5030104;28;20059;-70
2022/06/08 06:49:30;;;;;;;28.23;19.45;;;;;;;;;;5027911;28;20075;-70
2022/06/08 06:51:57;;;;;;;27.40;18.35;;;;;;;;;;5029358;28;20537;-70
2022/06/08 06:54:23;;;;;;;23.92;18.75;;;;;;;;;;5031268;28;20030;-70
2022/06/08 06:56:48;;;;;;;23.02;17.65;;;;;;;;;;5029749;28;20120;-70
2022/06/08 06:59:13;;;;;;;23.70;17.02;;;;;;;;;;5031262;28;20386;-70
2022/06/08 07:01:39;;;;;;;23.95;16.45;;;;;;;;;;5027872;28;20026;-70
2022/06/08 07:04:04;;;;;;;21.80;16.55;;;;;;;;;;5020606;28;20051;-72
2022/06/08 07:06:29;;;;;;;20.38;15.07;;;;;;;;;;5029761;28;20044;-72
2022/06/08 07:08:55;;;;;;;22.40;15.85;;;;;;;;;;5031327;28;20437;-72
2022/06/08 07:11:32;;;;;;;21.30;16.05;;;;;;;;;;5031071;28;20036;-72
2022/06/08 07:13:59;;;;;;;22.85;16.80;;;;;;;;;;5027009;28;20021;-72
2022/06/08 07:16:24;;;;;;;18.40;14.98;;;;;;;;;;5031118;28;20021;-72
2022/06/08 07:18:50;;;;;;;20.27;15.48;;;;;;;;;;5031491;28;20028;-72
2022/06/08 07:21:15;;;;;;;19.27;15.30;;;;;;;;;;5029529;28;20041;-72
2022/06/08 07:23:41;;;;;;;20.52;14.43;;;;;;;;;;5030841;28;20291;-72
2022/06/08 07:26:06;;;;;;;19.08;13.45;;;;;;;;;;5031038;28;20157;-72
2022/06/08 07:28:31;;;;;;;19.25;13.98;;;;;;;;;;5014253;28;20500;-70
2022/06/08 07:30:57;;;;;;;18.02;14.07;;;;;;;;;;5011511;28;20026;-70
2022/06/08 07:33:22;;;;;;;17.27;13.07;;;;;;;;;;5011527;28;20042;-70
2022/06/08 07:35:48;;;;;;;13.07;10.38;;;;;;;;;;5012130;28;20391;-70
2022/06/08 07:38:13;;;;;;;14.48;10.00;;;;;;;;;;5012069;28;20065;-70
2022/06/08 07:40:38;;;;;;;15.95;9.73;;;;;;;;;;5018656;28;20025;-69
2022/06/08 07:43:04;;;;;;;14.05;9.20;;;;;;;;;;5030579;28;20021;-69
2022/06/08 07:45:29;;;;;;;11.43;8.20;;;;;;;;;;5034625;28;20041;-70
2022/06/08 07:50:40;;;;;;;12.85;7.75;;;;;;;;;;5032998;28;20128;-70
2022/06/08 07:53:06;;;;;;;11.57;7.18;;;;;;;;;;5034920;28;20104;-70
2022/06/08 07:55:31;;;;;;;8.98;5.97;;;;;;;;;;5034785;28;20029;-70
2022/06/08 07:57:56;;;;;;;8.88;6.38;;;;;;;;;;5034616;28;20300;-71
2022/06/08 08:00:22;;;;;;;10.00;6.35;;;;;;;;;;5034670;28;20507;-71
2022/06/08 08:02:47;;;;;;;9.45;6.80;;;;;;;;;;5018225;28;20105;-71
2022/06/08 08:05:13;;;;;;;11.43;6.80;;;;;;;;;;5014855;28;20352;-71
2022/06/08 08:07:39;;;;;;;11.70;6.93;;;;;;;;;;5015830;28;20506;-71
2022/06/08 08:10:06;;;;;;;11.50;7.30;;;;;;;;;;5014379;28;20029;-71
2022/06/08 08:12:31;;;;;;;11.48;6.97;;;;;;;;;;5016844;28;20042;-70
2022/06/08 08:14:56;;;;;;;11.52;7.13;;;;;;;;;;5014763;28;20033;-70
2022/06/08 08:17:21;;;;;;;10.57;6.97;;;;;;;;;;5014382;28;20029;-70
2022/06/08 08:19:47;;;;;;;17.63;7.05;;;;;;;;;;5014474;28;20104;-70
2022/06/08 08:22:14;;;;;;;11.50;8.38;;;;;;;;;;5025828;28;20144;-71
2022/06/08 08:24:39;;;;;;;12.30;8.35;;;;;;;;;;5029289;28;20033;-71
2022/06/08 08:27:05;;;;;;;12.55;8.88;;;;;;;;;;5014242;28;20017;-71
2022/06/08 08:29:30;;;;;;;14.00;9.05;;;;;;;;;;5014370;28;20053;-71
2022/06/08 08:31:56;;;;;;;12.82;8.32;;;;;;;;;;5014202;28;20026;-71
2022/06/08 08:34:21;;;;;;;14.20;10.48;;;;;;;;;;5014213;28;20490;-71
2022/06/08 08:36:46;;;;;;;14.88;8.88;;;;;;;;;;5033146;28;20105;-70
2022/06/08 08:39:11;;;;;;;12.13;8.20;;;;;;;;;;5026807;28;20048;-71
2022/06/08 08:44:31;;;;;;;12.00;7.82;;;;;;;;;;5014190;28;20024;-71
2022/06/08 08:47:02;;;;;;;11.32;7.35;;;;;;;;;;5014088;28;20554;-71
2022/06/08 08:49:27;;;;;;;;;;;;;;;;;;5021943;28;20458;-71
2022/06/08 08:51:58;;;;;;;11.32;8.18;;;;;;;;;;5015568;28;19910;-71
2022/06/08 08:54:28;;;;;;;13.83;7.40;;;;;;;;;;5013713;28;20434;-71
2022/06/08 08:56:54;;;;;;;10.52;7.50;;;;;;;;;;5024784;28;20087;-71
2022/06/08 08:59:25;;;;;;;10.75;7.72;;;;;;;;;;5033516;28;20525;-71
2022/06/08 09:01:52;;;;;;;14.80;7.85;;;;;;;;;;5033277;28;20083;-70
2022/06/08 09:04:32;;;;;;;10.85;7.63;;;;;;;;;;5017759;28;20058;-70
2022/06/08 09:06:58;;;;;;;12.80;7.07;;;;;;;;;;5013480;28;20032;-72
2022/06/08 09:09:28;;;;;;;10.88;7.63;;;;;;;;;;5026477;28;20026;-72
2022/06/08 09:11:53;;;;;;;11.77;7.43;;;;;;;;;;5033330;28;20454;-72
2022/06/08 09:14:22;;;;;;;12.63;6.93;;;;;;;;;;5033059;28;20106;-71
2022/06/08 09:16:48;;;;;;;10.52;6.18;;;;;;;;;;5033074;28;20021;-71
2022/06/08 09:19:26;;;;;;;7.90;4.53;;;;;;;;;;5031498;28;20502;-71
2022/06/08 09:21:51;;;;;;;7.63;4.38;;;;;;;;;;5032757;28;20489;-71
2022/06/08 09:24:20;;;;;;;5.22;2.88;;;;;;;;;;5034672;28;20026;-71
2022/06/08 09:26:47;;;;;;;6.70;3.05;;;;;;;;;;5030295;28;20441;-70
2022/06/08 09:29:17;;;;;;;5.97;3.50;;;;;;;;;;5024098;28;20025;-71
2022/06/08 09:31:43;;;;;;;6.38;3.60;;;;;;;;;;5032737;28;20022;-71
2022/06/08 09:34:29;;;;;;;6.97;4.13;;;;;;;;;;5023340;28;20385;-70
2022/06/08 09:37:06;;;;;;;7.25;4.05;;;;;;;;;;5012867;28;20022;-70
2022/06/08 09:39:32;;;;;;;7.43;4.25;;;;;;;;;;5012666;28;20389;-70
2022/06/08 09:41:59;;;;;;;7.38;4.75;;;;;;;;;;5028902;28;20031;-70
2022/06/08 09:44:29;;;;;;;7.10;4.20;;;;;;;;;;5021754;28;20386;-70
2022/06/08 09:53:11;;;;;;;6.40;3.63;;;;;;;;;;5032386;28;20060;-71
2022/06/08 09:55:42;;;;;;;6.78;4.07;;;;;;;;;;5030855;28;20060;-71
2022/06/08 09:58:07;;;;;;;8.13;4.18;;;;;;;;;;5032293;28;20029;-68
2022/06/08 10:00:50;;;;;;;8.75;4.20;;;;;;;;;;5031692;28;20025;-68
2022/06/08 10:03:33;;;;;;;7.20;4.35;;;;;;;;;;5032609;28;20105;-69
2022/06/08 10:06:06;;;;;;;6.25;4.15;;;;;;;;;;5028461;28;20053;-68
2022/06/08 10:08:41;;;;;;;5.70;3.45;;;;;;;;;;5022500;28;20087;-68
2022/06/08 10:14:02;;;;;;;6.53;3.60;;;;;;;;;;5021716;28;20617;-69
2022/06/08 10:16:31;;;;;;;6.30;3.60;;;;;;;;;;5024686;28;20025;-69
2022/06/08 10:18:57;;;;;;;6.20;3.72;;;;;;;;;;5023648;28;20040;-69
2022/06/08 10:21:24;;;;;;;6.00;3.75;;;;;;;;;;5025229;28;21759;-69
2022/06/08 10:23:57;;;;;;;7.15;3.90;;;;;;;;;;5026711;28;20024;-69
2022/06/08 10:26:28;;;;;;;7.72;3.92;;;;;;;;;;5031136;28;20029;-70
2022/06/08 10:28:53;;;;;;;;;;;;;;;;;;5022838;28;20029;-68
2022/06/08 10:31:22;;;;;;;6.25;3.45;;;;;;;;;;5014658;28;19920;-70
2022/06/08 10:33:56;;;;;;;7.72;4.40;;;;;;;;;;5015213;28;20414;-71
2022/06/08 10:36:22;;;;;;;5.93;3.85;;;;;;;;;;5027046;28;20021;-71
2022/06/08 10:38:47;;;;;;;5.50;3.63;;;;;;;;;;5031047;28;20025;-71
2022/06/08 10:44:23;;;;;;;5.63;3.55;;;;;;;;;;5027511;28;20512;-72
2022/06/08 10:46:51;;;;;;;7.50;4.13;;;;;;;;;;5022899;28;20469;-72
2022/06/08 10:49:19;;;;;;;7.60;4.75;;;;;;;;;;5019465;28;20428;-71
2022/06/08 10:51:44;;;;;;;6.75;4.30;;;;;;;;;;5026261;28;20175;-71
2022/06/08 10:57:49;;;;;;;7.03;4.68;;;;;;;;;;5018917;28;20087;-71
2022/06/08 11:00:20;;;;;;;9.40;4.90;;;;;;;;;;5026633;28;20113;-71
2022/06/08 11:03:01;;;;;;;9.55;5.22;;;;;;;;;;5025381;28;20611;-71
2022/06/08 11:05:35;;;;;;;7.85;4.32;;;;;;;;;;5022261;28;20116;-71
2022/06/08 11:08:00;;;;;;;9.07;4.30;;;;;;;;;;5025280;28;20148;-71
2022/06/08 11:10:44;;;;;;;5.95;4.05;;;;;;;;;;5014117;28;20120;-72
2022/06/08 11:13:25;;;;;;;7.40;4.07;;;;;;;;;;5031656;28;20060;-72
2022/06/08 11:16:09;;;;;;;5.28;3.42;;;;;;;;;;5035606;28;20539;-73
2022/06/08 11:18:53;;;;;;;6.00;3.30;;;;;;;;;;5033885;28;20360;-72
2022/06/08 11:21:27;;;;;;;9.07;3.40;;;;;;;;;;5024111;28;20079;-72
2022/06/08 11:23:57;;;;;;;6.25;3.58;;;;;;;;;;5015577;28;20025;-72
2022/06/08 11:26:25;;;;;;;7.15;3.92;;;;;;;;;;5015267;28;20084;-72
2022/06/08 11:28:50;;;;;;;6.30;3.65;;;;;;;;;;5017747;28;20103;-72
2022/06/08 11:31:25;;;;;;;5.00;3.35;;;;;;;;;;5015395;28;20064;-72
2022/06/08 11:34:12;;;;;;;5.60;2.95;;;;;;;;;;5016178;28;20462;-72
2022/06/08 11:36:37;;;;;;;4.63;3.13;;;;;;;;;;5028781;28;20026;-72
2022/06/08 11:39:15;;;;;;;3.28;1.92;;;;;;;;;;5034984;28;20100;-72
2022/06/08 11:41:41;;;;;;;2.60;1.55;;;;;;;;;;5034971;28;20539;-71
2022/06/08 11:44:14;;;;;;;4.93;1.70;;;;;;;;;;5035161;28;20025;-71
2022/06/08 11:47:03;;;;;;;3.63;1.60;;;;;;;;;;5033211;28;20552;-71
2022/06/08 11:49:42;;;;;;;4.00;1.45;;;;;;;;;;5033472;28;20385;-72
2022/06/08 11:52:29;;;;;;;3.63;1.40;;;;;;;;;;5026669;28;20022;-72
2022/06/08 11:55:05;;;;;;;2.63;1.30;;;;;;;;;;5033216;28;20021;-72
2022/06/08 11:57:31;;;;;;;2.92;1.50;;;;;;;;;;5034882;28;20025;-72
2022/06/08 11:59:57;;;;;;;3.83;1.40;;;;;;;;;;5034310;28;20422;-71
2022/06/08 12:02:24;;;;;;;4.47;1.40;;;;;;;;;;5027154;28;20022;-71
2022/06/08 12:04:55;;;;;;;4.07;1.60;;;;;;;;;;5014970;28;20026;-71
2022/06/08 12:07:43;;;;;;;3.10;1.50;;;;;;;;;;5026941;28;20175;-72
2022/06/08 12:10:14;;;;;;;2.55;1.52;;;;;;;;;;5014424;28;20038;-72
2022/06/08 12:12:41;;;;;;;3.05;1.30;;;;;;;;;;5014684;28;20091;-72
2022/06/08 12:15:26;;;;;;;2.90;1.30;;;;;;;;;;5014756;28;20400;-72
2022/06/08 12:17:52;;;;;;;3.17;1.23;;;;;;;;;;5030029;28;20048;-72
2022/06/08 12:20:29;;;;;;;3.85;1.40;;;;;;;;;;5034152;28;20025;-72
2022/06/08 12:22:55;;;;;;;3.00;1.30;;;;;;;;;;5033471;28;20152;-72
2022/06/08 12:25:25;;;;;;;3.15;1.42;;;;;;;;;;5033268;28;20476;-71
2022/06/08 12:27:56;;;;;;;4.93;1.50;;;;;;;;;;5022721;28;20026;-70
2022/06/08 12:30:23;;;;;;;3.10;1.63;;;;;;;;;;5032889;28;20115;-70
2022/06/08 12:32:50;;;;;;;3.35;1.48;;;;;;;;;;5033947;28;20151;-70
2022/06/08 12:35:22;;;;;;;3.50;1.50;;;;;;;;;;5034189;28;20025;-72
2022/06/08 12:37:48;;;;;;;5.55;1.80;;;;;;;;;;5019779;28;20026;-70
2022/06/08 12:40:16;;;;;;;4.50;2.28;;;;;;;;;;5014071;28;20104;-70
2022/06/08 12:42:46;;;;;;;5.07;2.58;;;;;;;;;;5014147;28;20104;-70
2022/06/08 12:45:25;;;;;;;6.22;2.50;;;;;;;;;;5013858;28;20076;-70
2022/06/08 12:47:50;;;;;;;4.07;2.30;;;;;;;;;;5027458;28;20125;-70
2022/06/08 12:50:20;;;;;;;6.20;2.30;;;;;;;;;;5030553;28;20112;-70
2022/06/08 12:52:46;;;;;;;5.32;2.20;;;;;;;;;;5031329;28;20025;-70
2022/06/08 12:55:14;;;;;;;5.78;2.63;;;;;;;;;;5033297;28;20087;-70
2022/06/08 12:57:42;;;;;;;4.03;1.92;;;;;;;;;;5033134;28;20029;-70
2022/06/08 13:00:08;;;;;;;5.10;1.98;;;;;;;;;;5033559;28;20470;-70
2022/06/08 13:02:35;;;;;;;3.97;2.10;;;;;;;;;;5022113;28;20044;-70
2022/06/08 13:05:02;;;;;;;3.90;1.80;;;;;;;;;;5027928;28;20358;-71
2022/06/08 13:07:29;;;;;;;3.30;1.80;;;;;;;;;;5031442;28;20034;-70
2022/06/08 13:09:54;;;;;;;4.88;1.75;;;;;;;;;;5033352;28;20033;-70
2022/06/08 13:12:24;;;;;;;4.07;1.70;;;;;;;;;;5033323;28;20084;-70
2022/06/08 13:14:50;;;;;;;3.47;1.27;;;;;;;;;;5031772;28;20033;-70
2022/06/08 13:17:15;;;;;;;4.25;1.60;;;;;;;;;;5015958;28;20386;-71
2022/06/08 13:19:41;;;;;;;3.13;1.30;;;;;;;;;;5013165;28;20105;-70
2022/06/08 13:22:07;;;;;;;2.90;1.13;;;;;;;;;;5014292;28;20057;-70
2022/06/08 13:24:32;;;;;;;5.15;1.10;;;;;;;;;;5013044;28;20084;-70
2022/06/08 13:26:57;;;;;;;2.30;1.10;;;;;;;;;;5024252;28;20022;-72
2022/06/08 13:29:22;;;;;;;3.58;1.40;;;;;;;;;;5014145;28;20018;-72
2022/06/08 13:31:48;;;;;;;2.10;1.20;;;;;;;;;;5013281;28;20105;-73
2022/06/08 13:34:14;;;;;;;3.97;1.48;;;;;;;;;;5025265;28;20028;-69
2022/06/08 13:36:43;;;;;;;3.47;1.50;;;;;;;;;;5019707;28;20017;-69
2022/06/08 13:39:08;;;;;;;7.00;1.90;;;;;;;;;;5026778;28;20024;-68
2022/06/08 13:41:33;;;;;;;4.18;1.60;;;;;;;;;;5024187;28;20025;-68
2022/06/08 13:43:59;;;;;;;2.78;1.15;;;;;;;;;;5033386;28;20363;-68
2022/06/08 13:46:26;;;;;;;5.30;1.27;;;;;;;;;;5030075;28;20018;-71
2022/06/08 13:48:52;;;;;;;2.65;1.20;;;;;;;;;;5033541;28;20056;-70
2022/06/08 13:51:18;;;;;;;7.88;1.42;;;;;;;;;;5026948;28;20057;-70
2022/06/08 13:53:44;;;;;;;3.15;1.13;;;;;;;;;;5027620;28;20107;-70
2022/06/08 13:56:11;;;;;;;5.65;1.40;;;;;;;;;;5013274;28;20386;-70
2022/06/08 13:58:36;;;;;;;5.63;1.13;;;;;;;;;;5014929;28;20025;-70
2022/06/08 14:01:07;;;;;;;3.15;1.10;;;;;;;;;;5028945;28;20022;-70
2022/06/08 14:03:37;;;;;;;5.38;1.20;;;;;;;;;;5018700;28;20026;-70
2022/06/08 14:14:18;;;;;;;2.97;1.50;;;;;;;;;;5012585;28;20088;-69
2022/06/08 14:16:45;;;;;;;4.18;1.15;;;;;;;;;;5018004;28;20108;-70
2022/06/08 14:19:16;;;;;;;2.40;1.13;;;;;;;;;;5024121;28;20470;-70
2022/06/08 14:21:42;;;;;;;1.95;0.90;;;;;;;;;;5029914;28;20029;-69
2022/06/08 14:24:16;;;;;;;1.60;0.80;;;;;;;;;;5021899;28;20031;-69
2022/06/08 14:26:42;;;;;;;1.75;0.90;;;;;;;;;;5024621;28;20026;-69
2022/06/08 14:29:07;;;;;;;2.53;0.93;;;;;;;;;;5011988;28;20088;-70
2022/06/08 14:31:36;;;;;;;3.45;1.00;;;;;;;;;;5012765;28;20038;-70
2022/06/08 14:34:06;;;;;;;2.58;1.00;;;;;;;;;;5016735;28;20038;-70
2022/06/08 14:36:31;;;;;;;4.85;1.10;;;;;;;;;;5028601;28;20060;-70
2022/06/08 14:38:57;;;;;;;3.10;1.10;;;;;;;;;;5019891;28;20057;-70
2022/06/08 14:41:37;;;;;;;2.95;0.90;;;;;;;;;;5011974;28;20125;-70
2022/06/08 14:44:03;;;;;;;3.75;0.90;;;;;;;;;;5014553;28;20565;-70
2022/06/08 14:46:28;;;;;;;3.25;0.90;;;;;;;;;;5014182;28;20043;-72
2022/06/08 14:48:54;;;;;;;2.10;0.80;;;;;;;;;;5021333;28;20404;-72
2022/06/08 14:51:20;;;;;;;3.47;0.90;;;;;;;;;;5027935;28;20159;-72
2022/06/08 14:53:46;;;;;;;2.30;0.90;;;;;;;;;;5025730;28;20025;-72
2022/06/08 14:56:25;;;;;;;3.67;0.80;;;;;;;;;;5018028;28;20018;-72
2022/06/08 14:58:59;;;;;;;1.95;0.90;;;;;;;;;;5022386;28;20479;-72
2022/06/08 15:01:25;;;;;;;5.43;1.00;;;;;;;;;;5013546;28;20085;-72
2022/06/08 15:03:51;;;;;;;2.47;0.80;;;;;;;;;;5029707;28;20128;-72
2022/06/08 15:06:16;;;;;;;6.75;0.95;;;;;;;;;;5030416;28;20104;-72